Time;durP1;ratioP1;P1;durP2;ratioP2;P2;SDS_P1;SDS_P2;PMS_P1;PMS_P2;Temp;Humidity;BMP_temperature;BMP_pressure;BME280_temperature;BME280_humidity;BME280_pressure;Samples;Min_cycle;Max_cycle;Signal;HPM_P1;HPM_P2
2021/03/14 00:00:57;;;;;;;24.10;4.05;;;;;;;7.34;100.00;101396.28;5052778;28;20387;-66
2021/03/14 00:03:26;;;;;;;21.33;3.70;;;;;;;7.33;100.00;101393.78;5071773;28;20040;-70
2021/03/14 00:05:52;;;;;;;26.60;4.93;;;;;;;7.33;100.00;101397.31;5074692;28;20036;-65
2021/03/14 00:08:20;;;;;;;19.75;3.05;;;;;;;7.34;100.00;101399.00;5074774;28;20037;-64
2021/03/14 00:10:55;;;;;;;25.77;3.65;;;;;;;7.37;100.00;101414.88;5074479;28;20059;-68
2021/03/14 00:13:24;;;;;;;20.25;3.03;;;;;;;7.36;100.00;101412.38;5074564;28;20449;-67
2021/03/14 00:15:50;;;;;;;28.13;5.13;;;;;;;7.36;100.00;101413.22;5074443;28;20029;-66
2021/03/14 00:18:18;;;;;;;29.70;4.00;;;;;;;7.36;100.00;101425.97;5074598;28;20041;-66
2021/03/14 00:20:44;;;;;;;28.25;4.78;;;;;;;7.34;100.00;101426.16;5074343;28;20048;-68
2021/03/14 00:23:10;;;;;;;18.48;2.78;;;;;;;7.34;100.00;101439.75;5074272;28;20036;-65
2021/03/14 00:25:35;;;;;;;22.98;3.42;;;;;;;7.34;100.00;101442.47;5074482;28;20040;-65
2021/03/14 00:28:03;;;;;;;19.55;3.60;;;;;;;7.35;100.00;101441.44;5074330;28;20524;-67
2021/03/14 00:30:28;;;;;;;26.88;4.15;;;;;;;7.29;100.00;101450.41;5074212;28;20051;-70
2021/03/14 00:32:55;;;;;;;22.60;2.90;;;;;;;7.23;100.00;101452.06;5074262;28;20028;-66
2021/03/14 00:35:20;;;;;;;21.75;3.25;;;;;;;7.20;100.00;101454.34;5074134;28;20439;-66
2021/03/14 00:37:47;;;;;;;16.25;2.97;;;;;;;7.18;100.00;101464.59;5074050;28;20040;-67
2021/03/14 00:40:13;;;;;;;26.10;3.85;;;;;;;7.17;100.00;101468.34;5074123;28;20174;-65
2021/03/14 00:42:39;;;;;;;17.30;3.50;;;;;;;7.15;100.00;101462.28;5073801;28;20041;-66
2021/03/14 00:45:06;;;;;;;19.35;2.95;;;;;;;7.13;100.00;101472.53;5073869;28;20043;-66
2021/03/14 00:47:33;;;;;;;24.70;3.75;;;;;;;7.12;100.00;101476.28;5073895;28;20037;-69
2021/03/14 00:49:58;;;;;;;24.15;4.18;;;;;;;7.10;100.00;101478.34;5074015;28;20059;-67
2021/03/14 00:52:24;;;;;;;16.42;2.83;;;;;;;7.09;100.00;101488.38;5073778;28;20036;-64
2021/03/14 00:54:50;;;;;;;26.00;3.42;;;;;;;7.08;100.00;101480.41;5073768;28;20425;-64
2021/03/14 00:57:15;;;;;;;24.17;3.65;;;;;;;7.07;100.00;101487.72;5073823;28;20067;-66
2021/03/14 00:59:41;;;;;;;24.40;4.55;;;;;;;7.05;100.00;101487.09;5074006;28;20375;-65
2021/03/14 01:02:07;;;;;;;29.23;3.25;;;;;;;7.02;100.00;101481.25;5073489;28;20041;-67
2021/03/14 01:04:32;;;;;;;26.00;3.92;;;;;;;7.01;100.00;101494.00;5073585;28;20047;-67
2021/03/14 01:06:58;;;;;;;16.45;3.05;;;;;;;7.01;100.00;101485.00;5055641;28;20135;-65
2021/03/14 01:09:23;;;;;;;28.48;4.82;;;;;;;7.01;100.00;101495.88;5073449;28;20056;-65
2021/03/14 01:11:49;;;;;;;16.92;3.22;;;;;;;7.00;100.00;101499.63;5073581;28;20043;-67
2021/03/14 01:14:15;;;;;;;23.90;3.08;;;;;;;6.99;100.00;101504.22;5072606;28;20041;-66
2021/03/14 01:16:41;;;;;;;21.48;3.35;;;;;;;7.02;100.00;101508.41;5073239;28;20094;-67
2021/03/14 01:19:07;;;;;;;25.35;3.47;;;;;;;7.02;100.00;101511.13;5073364;28;20124;-66
2021/03/14 01:21:32;;;;;;;24.17;3.15;;;;;;;7.01;100.00;101517.59;5073325;28;20040;-68
2021/03/14 01:23:58;;;;;;;32.28;3.40;;;;;;;6.98;100.00;101521.56;5073372;28;20060;-66
2021/03/14 01:26:24;;;;;;;27.13;3.78;;;;;;;6.97;100.00;101528.03;5073374;28;20040;-65
2021/03/14 01:28:50;;;;;;;23.92;3.72;;;;;;;6.99;100.00;101535.97;5055585;28;20040;-66
2021/03/14 01:31:15;;;;;;;22.27;2.97;;;;;;;7.01;100.00;101528.47;5073366;28;20033;-67
2021/03/14 01:33:41;;;;;;;26.33;3.13;;;;;;;7.03;100.00;101535.38;5073108;28;20043;-66
2021/03/14 01:36:07;;;;;;;26.98;4.03;;;;;;;7.03;100.00;101529.09;5073340;28;20036;-67
2021/03/14 01:38:34;;;;;;;25.38;3.17;;;;;;;7.03;100.00;101529.09;5055426;28;20074;-65
2021/03/14 01:41:00;;;;;;;30.02;4.72;;;;;;;7.02;100.00;101532.84;5073181;28;20044;-66
2021/03/14 01:43:28;;;;;;;47.92;4.93;;;;;;;7.02;100.00;101535.56;5073150;28;20041;-68
2021/03/14 01:45:55;;;;;;;15.65;3.25;;;;;;;7.01;100.00;101540.16;5073182;28;20067;-66
2021/03/14 01:48:25;;;;;;;25.15;2.78;;;;;;;7.04;100.00;101531.59;5073067;28;20064;-64
2021/03/14 01:50:51;;;;;;;21.17;3.70;;;;;;;7.05;100.00;101543.31;5073207;28;20032;-66
2021/03/14 01:53:18;;;;;;;21.75;4.38;;;;;;;7.06;100.00;101558.56;5072846;28;20043;-66
2021/03/14 01:55:44;;;;;;;20.05;2.75;;;;;;;7.07;100.00;101565.66;5072973;28;20051;-66
2021/03/14 01:58:12;;;;;;;19.33;3.58;;;;;;;7.06;100.00;101564.00;5073011;28;20067;-65
2021/03/14 02:00:37;;;;;;;19.05;3.30;;;;;;;7.07;100.00;101571.09;5072880;28;20033;-67
2021/03/14 02:03:03;;;;;;;25.60;3.92;;;;;;;7.06;100.00;101585.72;5072489;28;20066;-66
2021/03/14 02:05:29;;;;;;;26.80;3.47;;;;;;;7.06;100.00;101588.44;5072585;28;20478;-65
2021/03/14 02:07:55;;;;;;;19.48;3.28;;;;;;;7.05;100.00;101597.63;5072590;28;20041;-67
2021/03/14 02:10:24;;;;;;;24.10;3.10;;;;;;;7.03;100.00;101597.84;5072356;28;20497;-67
2021/03/14 02:12:56;;;;;;;29.77;6.07;;;;;;;7.01;100.00;101601.78;5072287;28;20112;-69
2021/03/14 02:15:23;;;;;;;21.50;3.97;;;;;;;7.01;100.00;101594.47;5072275;28;20039;-68
2021/03/14 02:17:50;;;;;;;26.27;3.70;;;;;;;7.02;100.00;101606.19;5072287;28;20040;-66
2021/03/14 02:20:21;;;;;;;26.33;3.58;;;;;;;7.02;100.00;101608.91;5072420;28;20139;-65
2021/03/14 02:22:53;;;;;;;25.25;4.00;;;;;;;7.02;100.00;101611.63;5071958;28;20040;-64
2021/03/14 02:25:30;;;;;;;25.55;3.40;;;;;;;7.01;100.00;101620.81;5072037;28;20075;-66
2021/03/14 02:27:56;;;;;;;33.58;4.85;;;;;;;7.00;100.00;101624.56;5071924;28;20032;-65
2021/03/14 02:30:23;;;;;;;26.63;4.03;;;;;;;6.99;100.00;101628.31;5071980;28;20098;-67
2021/03/14 02:32:49;;;;;;;30.33;4.78;;;;;;;6.95;100.00;101623.28;5071936;28;20041;-67
2021/03/14 02:35:17;;;;;;;21.65;5.20;;;;;;;6.95;100.00;101628.72;5071862;28;20077;-66
2021/03/14 02:37:45;;;;;;;26.35;4.32;;;;;;;6.97;100.00;101630.41;5071762;28;20071;-66
2021/03/14 02:40:12;;;;;;;23.25;5.78;;;;;;;6.99;100.00;101622.88;5071761;28;20045;-69
2021/03/14 02:42:40;;;;;;;23.58;4.13;;;;;;;6.98;100.00;101629.34;5071502;28;20511;-68
2021/03/14 02:45:08;;;;;;;23.30;3.85;;;;;;;6.99;100.00;101634.59;5071727;28;20139;-66
2021/03/14 02:47:34;;;;;;;26.75;3.97;;;;;;;7.01;100.00;101629.78;5071553;28;20071;-67
2021/03/14 02:50:01;;;;;;;24.67;3.67;;;;;;;7.01;100.00;101632.50;5071722;28;20068;-68
2021/03/14 02:52:27;;;;;;;37.80;5.50;;;;;;;7.00;100.00;101624.56;5071374;28;20037;-67
2021/03/14 02:54:55;;;;;;;21.58;3.70;;;;;;;7.01;100.00;101631.66;5071429;28;20040;-68
2021/03/14 02:57:22;;;;;;;21.40;3.90;;;;;;;7.03;100.00;101635.03;5071381;28;20075;-68
2021/03/14 02:59:53;;;;;;;24.25;4.57;;;;;;;7.04;100.00;101631.25;5071392;28;20079;-64
2021/03/14 03:02:19;;;;;;;29.77;4.25;;;;;;;7.04;100.00;101642.97;5071312;28;20040;-67
2021/03/14 03:04:48;;;;;;;25.27;4.47;;;;;;;7.05;100.00;101643.81;5071400;28;20530;-67
2021/03/14 03:07:16;;;;;;;26.05;3.38;;;;;;;7.05;100.00;101654.66;5071262;28;20036;-66
2021/03/14 03:09:45;;;;;;;25.13;4.68;;;;;;;7.03;100.00;101656.75;5070990;28;20074;-67
2021/03/14 03:12:13;;;;;;;29.15;4.72;;;;;;;7.02;100.00;101660.50;5071110;28;20059;-68
2021/03/14 03:14:39;;;;;;;31.40;4.30;;;;;;;7.02;100.00;101657.78;5071088;28;20131;-66
2021/03/14 03:17:05;;;;;;;31.48;3.85;;;;;;;7.01;100.00;101659.66;5071227;28;20173;-64
2021/03/14 03:19:31;;;;;;;29.85;4.93;;;;;;;7.02;100.00;101655.06;5071139;28;20121;-65
2021/03/14 03:21:57;;;;;;;26.35;3.83;;;;;;;7.01;100.00;101653.41;5071140;28;20047;-66
2021/03/14 03:24:23;;;;;;;25.42;3.30;;;;;;;7.00;100.00;101657.16;5070864;28;20068;-66
2021/03/14 03:26:49;;;;;;;24.80;4.05;;;;;;;6.99;100.00;101656.31;5071005;28;20044;-64
2021/03/14 03:29:17;;;;;;;30.08;4.57;;;;;;;6.99;100.00;101658.19;5070968;28;20130;-67
2021/03/14 03:31:45;;;;;;;22.98;4.07;;;;;;;7.00;100.00;101668.03;5070953;28;20665;-66
2021/03/14 03:34:12;;;;;;;37.42;4.43;;;;;;;7.01;100.00;101669.69;5070882;28;20445;-68
2021/03/14 03:36:38;;;;;;;37.55;4.28;;;;;;;7.00;100.00;101684.31;5070899;28;20080;-66
2021/03/14 03:39:09;;;;;;;22.17;3.60;;;;;;;7.00;100.00;101690.59;5052413;28;20025;-64
2021/03/14 03:41:45;;;;;;;31.55;4.80;;;;;;;7.00;100.00;101696.00;5052644;28;20028;-67
2021/03/14 03:44:12;;;;;;;29.42;4.47;;;;;;;7.00;100.00;101700.63;5070698;28;20184;-65
2021/03/14 03:46:41;;;;;;;21.83;3.47;;;;;;;7.00;100.00;101706.03;5070742;28;20040;-64
2021/03/14 03:49:08;;;;;;;33.90;4.55;;;;;;;7.00;100.00;101700.63;5070913;28;20038;-68
2021/03/14 03:51:35;;;;;;;30.35;4.35;;;;;;;7.00;100.00;101693.31;5070768;28;20094;-64
2021/03/14 03:54:04;;;;;;;20.45;3.20;;;;;;;7.01;100.00;101694.13;5070694;28;20040;-65
2021/03/14 03:56:31;;;;;;;32.72;4.18;;;;;;;7.03;100.00;101700.22;5070601;28;20028;-66
2021/03/14 03:59:00;;;;;;;27.90;4.40;;;;;;;7.02;100.00;101703.97;5070673;28;20038;-66
2021/03/14 04:01:30;;;;;;;20.10;3.40;;;;;;;7.04;100.00;101696.47;5051524;28;20053;-65
2021/03/14 04:03:56;;;;;;;22.00;3.85;;;;;;;7.04;100.00;101712.75;5071021;28;20363;-66
2021/03/14 04:06:24;;;;;;;29.38;4.18;;;;;;;7.04;100.00;101704.59;5070659;28;20060;-66
2021/03/14 04:08:50;;;;;;;25.77;4.00;;;;;;;7.05;100.00;101704.41;5070427;28;20028;-67
2021/03/14 04:11:18;;;;;;;38.42;4.40;;;;;;;7.04;100.00;101705.44;5071125;28;20029;-66
2021/03/14 04:13:45;;;;;;;33.45;5.10;;;;;;;7.08;100.00;101703.16;5070491;28;20079;-65
2021/03/14 04:16:12;;;;;;;27.10;4.63;;;;;;;7.10;100.00;101714.66;5070598;28;20395;-68
2021/03/14 04:18:39;;;;;;;23.40;3.80;;;;;;;7.10;100.00;101711.94;5070724;28;20506;-66
2021/03/14 04:21:07;;;;;;;27.80;4.78;;;;;;;7.11;100.00;101713.63;5070409;28;20032;-64
2021/03/14 04:23:36;;;;;;;35.92;4.95;;;;;;;7.11;100.00;101710.91;5070378;28;20033;-64
2021/03/14 04:26:03;;;;;;;28.80;3.92;;;;;;;7.10;100.00;101711.94;5070471;28;20119;-66
2021/03/14 04:28:31;;;;;;;26.15;4.05;;;;;;;7.12;100.00;101718.06;5070344;28;20048;-64
2021/03/14 04:30:59;;;;;;;25.95;4.15;;;;;;;7.11;100.00;101724.50;5070307;28;20485;-65
2021/03/14 04:33:25;;;;;;;30.20;5.13;;;;;;;7.10;100.00;101726.38;5070175;28;20395;-65
2021/03/14 04:35:53;;;;;;;25.60;3.88;;;;;;;7.09;100.00;101730.13;5070220;28;20033;-66
2021/03/14 04:38:19;;;;;;;30.75;4.57;;;;;;;7.10;100.00;101733.69;5070242;28;20383;-66
2021/03/14 04:40:46;;;;;;;25.42;4.90;;;;;;;7.10;100.00;101739.94;5070362;28;20121;-67
2021/03/14 04:43:13;;;;;;;25.25;4.43;;;;;;;7.11;100.00;101747.06;5052355;28;20032;-64
2021/03/14 04:45:40;;;;;;;30.65;4.55;;;;;;;7.12;100.00;101758.81;5069999;28;20029;-68
2021/03/14 04:48:06;;;;;;;26.15;4.95;;;;;;;7.12;100.00;101761.53;5070083;28;20086;-67
2021/03/14 04:50:32;;;;;;;25.48;4.13;;;;;;;7.13;100.00;101760.47;5054940;28;20433;-64
2021/03/14 04:53:00;;;;;;;33.50;4.82;;;;;;;7.12;100.00;101769.66;5073763;28;20036;-66
2021/03/14 04:55:28;;;;;;;26.95;4.18;;;;;;;7.12;100.00;101780.53;5073874;28;20037;-65
2021/03/14 04:57:56;;;;;;;39.85;4.70;;;;;;;7.14;100.00;101789.31;5073790;28;20056;-64
2021/03/14 05:00:24;;;;;;;31.83;4.35;;;;;;;7.13;100.00;101799.34;5073648;28;20044;-65
2021/03/14 05:02:52;;;;;;;30.27;4.60;;;;;;;7.14;100.00;101792.03;5073406;28;20043;-65
2021/03/14 05:05:19;;;;;;;42.35;4.32;;;;;;;7.14;100.00;101797.47;5073600;28;20040;-67
2021/03/14 05:07:46;;;;;;;35.08;5.47;;;;;;;7.16;100.00;101798.13;5073523;28;20058;-66
2021/03/14 05:10:16;;;;;;;30.13;4.50;;;;;;;7.16;100.00;101809.81;5073472;28;20140;-67
2021/03/14 05:12:43;;;;;;;30.02;4.20;;;;;;;7.17;100.00;101813.38;5073488;28;20048;-69
2021/03/14 05:15:11;;;;;;;21.83;3.88;;;;;;;7.17;100.00;101822.38;5055551;28;20044;-69
2021/03/14 05:17:39;;;;;;;32.28;4.90;;;;;;;7.19;100.00;101820.28;5073301;28;20094;-65
2021/03/14 05:20:07;;;;;;;32.30;4.40;;;;;;;7.21;100.00;101828.25;5073273;28;20107;-65
2021/03/14 05:22:35;;;;;;;27.83;4.45;;;;;;;7.22;100.00;101829.94;5073144;28;20114;-67
2021/03/14 05:25:03;;;;;;;29.80;3.75;;;;;;;7.23;100.00;101842.47;5073244;28;20429;-64
2021/03/14 05:27:30;;;;;;;35.13;4.50;;;;;;;7.23;100.00;101837.88;5073215;28;20040;-64
2021/03/14 05:29:55;;;;;;;29.13;4.57;;;;;;;7.24;100.00;101844.16;5073357;28;20086;-68
2021/03/14 05:32:21;;;;;;;29.63;4.05;;;;;;;7.23;100.00;101848.75;5072984;28;20036;-67
2021/03/14 05:34:47;;;;;;;33.97;4.75;;;;;;;7.23;100.00;101858.78;5073009;28;20086;-66
2021/03/14 05:37:12;;;;;;;24.88;4.15;;;;;;;7.25;100.00;101859.41;5073043;28;20086;-68
2021/03/14 05:39:38;;;;;;;39.47;5.07;;;;;;;7.23;100.00;101865.06;5073389;28;20045;-68
2021/03/14 05:42:04;;;;;;;22.52;3.30;;;;;;;7.25;100.00;101857.53;5072761;28;20048;-64
2021/03/14 05:44:31;;;;;;;27.67;3.83;;;;;;;7.26;100.00;101869.25;5055075;28;20043;-65
2021/03/14 05:46:57;;;;;;;34.08;4.78;;;;;;;7.26;100.00;101869.25;5072870;28;20040;-66
2021/03/14 05:49:23;;;;;;;29.33;4.18;;;;;;;7.25;100.00;101873.00;5072813;28;20119;-69
2021/03/14 05:51:54;;;;;;;30.85;5.63;;;;;;;7.25;100.00;101873.00;5072778;28;20386;-65
2021/03/14 05:54:20;;;;;;;21.20;3.53;;;;;;;7.24;100.00;101882.19;5072547;28;20032;-66
2021/03/14 05:56:48;;;;;;;28.02;5.45;;;;;;;7.26;100.00;101880.13;5072588;28;20032;-68
2021/03/14 05:59:18;;;;;;;30.10;4.22;;;;;;;7.27;100.00;101881.81;5072718;28;20383;-67
2021/03/14 06:01:49;;;;;;;28.80;4.30;;;;;;;7.28;100.00;101894.34;5072056;28;20127;-66
2021/03/14 06:04:16;;;;;;;25.83;3.38;;;;;;;7.28;100.00;101883.47;5054977;28;20044;-64
2021/03/14 06:06:42;;;;;;;23.27;3.90;;;;;;;7.30;100.00;101886.88;5072430;28;20032;-66
2021/03/14 06:09:08;;;;;;;28.50;3.88;;;;;;;7.31;100.00;101891.28;5072148;28;20411;-66
2021/03/14 06:11:34;;;;;;;32.40;5.00;;;;;;;7.32;100.00;101898.38;5072375;28;20094;-66
2021/03/14 06:14:01;;;;;;;32.40;4.65;;;;;;;7.32;100.00;101898.38;5072193;28;20036;-66
2021/03/14 06:16:27;;;;;;;30.02;4.75;;;;;;;7.33;100.00;101896.50;5072482;28;20032;-66
2021/03/14 06:18:53;;;;;;;24.02;4.63;;;;;;;7.33;100.00;101912.81;5072416;28;20039;-67
2021/03/14 06:21:20;;;;;;;38.35;4.75;;;;;;;7.33;100.00;101919.09;5072186;28;20068;-69
2021/03/14 06:23:58;;;;;;;35.22;4.15;;;;;;;7.32;100.00;101917.41;5054142;28;20047;-67
2021/03/14 06:26:34;;;;;;;22.10;3.92;;;;;;;7.35;100.00;101922.44;5072055;28;20355;-64
2021/03/14 06:29:20;;;;;;;29.98;4.53;;;;;;;7.41;100.00;101931.69;5071943;28;20781;-67
2021/03/14 06:31:47;;;;;;;25.35;4.30;;;;;;;7.41;100.00;101937.97;5071836;28;20037;-66
2021/03/14 06:34:28;;;;;;;31.20;4.00;;;;;;;7.42;100.00;101934.22;5072009;28;20040;-66
2021/03/14 06:36:56;;;;;;;32.13;4.95;;;;;;;7.44;100.00;101948.44;5071855;28;20036;-65
2021/03/14 06:39:25;;;;;;;27.25;4.22;;;;;;;7.43;100.00;101946.75;5071776;28;20082;-65
2021/03/14 06:41:51;;;;;;;30.48;3.97;;;;;;;7.43;100.00;101957.63;5071597;28;20437;-66
2021/03/14 06:44:22;;;;;;;29.23;5.63;;;;;;;7.40;100.00;101958.03;5053681;28;20376;-68
2021/03/14 06:46:47;;;;;;;22.38;3.22;;;;;;;7.41;100.00;101965.16;5071643;28;20478;-67
2021/03/14 06:49:21;;;;;;;26.13;4.13;;;;;;;7.44;100.00;101975.63;5071752;28;20093;-68
2021/03/14 06:51:49;;;;;;;31.15;5.10;;;;;;;7.44;100.00;101967.47;5071776;28;20562;-67
2021/03/14 06:54:29;;;;;;;30.08;4.13;;;;;;;7.45;100.00;101950.13;5071392;28;20390;-67
2021/03/14 06:57:01;;;;;;;20.48;3.95;;;;;;;7.48;100.00;101965.22;5071560;28;20555;-65
2021/03/14 06:59:29;;;;;;;30.30;5.60;;;;;;;7.50;100.00;101972.16;5071536;28;20055;-67
2021/03/14 07:02:00;;;;;;;31.02;3.53;;;;;;;7.53;100.00;101974.47;5071407;28;20402;-65
2021/03/14 07:04:43;;;;;;;28.23;4.13;;;;;;;7.56;100.00;101984.97;5071598;28;20182;-68
2021/03/14 07:07:14;;;;;;;30.73;5.10;;;;;;;7.61;100.00;101991.69;5071612;28;20185;-64
2021/03/14 07:09:40;;;;;;;27.60;4.10;;;;;;;7.65;100.00;101993.00;5071220;28;20379;-66
2021/03/14 07:12:20;;;;;;;30.25;4.45;;;;;;;7.67;100.00;102001.81;5071317;28;20031;-67
2021/03/14 07:14:46;;;;;;;28.23;4.72;;;;;;;7.70;100.00;102013.13;5071422;28;20037;-66
2021/03/14 07:17:26;;;;;;;26.48;4.60;;;;;;;7.73;100.00;102001.84;5071339;28;20081;-66
2021/03/14 07:20:09;;;;;;;30.52;4.80;;;;;;;7.77;100.00;102018.63;5071300;28;20398;-65
2021/03/14 07:22:36;;;;;;;25.85;4.65;;;;;;;7.81;100.00;102020.78;5071299;28;20093;-66
2021/03/14 07:25:04;;;;;;;24.95;3.88;;;;;;;7.89;100.00;102027.94;5071270;28;20044;-69
2021/03/14 07:27:29;;;;;;;26.75;4.30;;;;;;;7.94;100.00;102035.50;5071129;28;20032;-66
2021/03/14 07:29:57;;;;;;;28.63;4.18;;;;;;;7.97;100.00;102038.69;5071306;28;20035;-65
2021/03/14 07:32:24;;;;;;;23.77;4.32;;;;;;;7.98;100.00;102043.06;5071060;28;20555;-65
2021/03/14 07:34:50;;;;;;;28.30;5.22;;;;;;;8.00;100.00;102051.91;5071205;28;20131;-67
2021/03/14 07:37:16;;;;;;;28.83;5.13;;;;;;;8.02;100.00;102058.00;5071278;28;20094;-70
2021/03/14 07:39:46;;;;;;;23.63;3.83;;;;;;;8.05;100.00;102056.75;5071224;28;20470;-66
2021/03/14 07:42:12;;;;;;;20.67;4.45;;;;;;;8.08;100.00;102059.94;5070812;28;20043;-67
2021/03/14 07:44:37;;;;;;;22.17;3.40;;;;;;;8.13;100.00;102076.50;5070919;28;20539;-67
2021/03/14 07:47:03;;;;;;;27.80;3.05;;;;;;;8.15;100.00;102079.03;5070792;28;20044;-67
2021/03/14 07:49:29;;;;;;;26.00;3.97;;;;;;;8.18;100.00;102077.81;5070895;28;20032;-66
2021/03/14 07:51:59;;;;;;;20.23;3.53;;;;;;;8.21;100.00;102085.59;5070834;28;20044;-65
2021/03/14 07:54:50;;;;;;;26.83;3.75;;;;;;;8.25;100.00;102089.59;5070759;28;20035;-65
2021/03/14 07:57:20;;;;;;;29.25;4.80;;;;;;;8.30;100.00;102089.81;5057417;28;20528;-65
2021/03/14 07:59:45;;;;;;;23.33;4.00;;;;;;;8.32;100.00;102098.63;5070712;28;20044;-65
2021/03/14 08:02:17;;;;;;;21.40;3.58;;;;;;;8.36;100.00;102113.59;5070526;28;20040;-66
2021/03/14 08:04:51;;;;;;;25.10;4.45;;;;;;;8.38;100.00;102111.53;5070550;28;20032;-66
2021/03/14 08:07:36;;;;;;;33.65;4.40;;;;;;;8.42;100.00;102115.53;5070449;28;20060;-66
2021/03/14 08:10:05;;;;;;;23.17;3.03;;;;;;;8.46;100.00;102119.53;5070346;28;20041;-69
2021/03/14 08:12:37;;;;;;;18.65;3.47;;;;;;;8.51;100.00;102119.81;5052826;28;20024;-65
2021/03/14 08:15:21;;;;;;;29.95;3.58;;;;;;;8.56;100.00;102122.75;5070480;28;20566;-67
2021/03/14 08:17:47;;;;;;;23.58;3.38;;;;;;;8.59;100.00;102127.81;5070447;28;20506;-67
2021/03/14 08:20:13;;;;;;;38.33;4.50;;;;;;;8.64;100.00;102130.78;5070443;28;20041;-68
2021/03/14 08:22:38;;;;;;;29.30;4.13;;;;;;;8.66;100.00;102134.13;5070481;28;20406;-66
2021/03/14 08:25:26;;;;;;;33.20;3.45;;;;;;;8.68;100.00;102123.91;5072749;28;20032;-68
2021/03/14 08:27:58;;;;;;;28.38;4.40;;;;;;;8.74;100.00;102136.72;5074511;28;20465;-70
2021/03/14 08:30:29;;;;;;;34.75;4.43;;;;;;;8.74;100.00;102147.63;5074375;28;20032;-67
2021/03/14 08:33:17;;;;;;;24.95;3.92;;;;;;;8.76;100.00;102145.53;5074058;28;20036;-66
2021/03/14 08:35:50;;;;;;;29.73;3.70;;;;;;;8.82;100.00;102159.41;5074116;28;20101;-68
2021/03/14 08:38:41;;;;;;;31.73;4.50;;;;;;;8.84;100.00;102160.03;5074166;28;20533;-67
2021/03/14 08:41:22;;;;;;;26.20;3.33;;;;;;;8.92;100.00;102160.75;5074117;28;20044;-65
2021/03/14 08:43:54;;;;;;;25.60;4.13;;;;;;;8.96;100.00;102164.75;5074069;28;20036;-65
2021/03/14 08:46:20;;;;;;;27.40;4.57;;;;;;;9.02;100.00;102163.97;5074225;28;20033;-66
2021/03/14 08:48:46;;;;;;;26.83;4.80;;;;;;;9.02;100.00;102157.66;5074026;28;20078;-64
2021/03/14 08:51:13;;;;;;;27.83;4.38;;;;;;;9.01;100.00;102154.09;5073894;28;20036;-66
2021/03/14 08:53:39;;;;;;;24.55;3.35;;;;;;;9.06;100.00;102157.06;5073777;28;20033;-68
2021/03/14 08:56:06;;;;;;;28.48;3.33;;;;;;;9.10;100.00;102162.97;5073991;28;20063;-65
2021/03/14 08:58:32;;;;;;;23.77;4.72;;;;;;;9.15;100.00;102174.09;5056024;28;20115;-66
2021/03/14 09:01:05;;;;;;;29.95;3.75;;;;;;;9.12;100.00;102152.69;5055915;28;20513;-67
2021/03/14 09:03:31;;;;;;;23.15;3.88;;;;;;;9.18;100.00;102159.22;5073528;28;20090;-67
2021/03/14 09:06:26;;;;;;;20.77;3.35;;;;;;;9.23;100.00;102184.88;5073529;28;20072;-66
2021/03/14 09:09:00;;;;;;;23.73;3.58;;;;;;;9.27;100.00;102186.13;5073686;28;20025;-68
2021/03/14 09:11:39;;;;;;;24.75;4.20;;;;;;;9.27;100.00;102179.84;5073493;28;20032;-68
2021/03/14 09:14:23;;;;;;;30.60;4.63;;;;;;;9.32;100.00;102182.78;5073505;28;20043;-66
2021/03/14 09:16:50;;;;;;;27.98;4.22;;;;;;;9.43;100.00;102189.59;5073579;28;20071;-65
2021/03/14 09:19:40;;;;;;;23.85;3.90;;;;;;;9.42;100.00;102194.19;5055633;28;20032;-67
2021/03/14 09:22:16;;;;;;;24.40;3.45;;;;;;;9.46;100.00;102189.19;5055037;28;20040;-65
2021/03/14 09:24:49;;;;;;;22.40;4.13;;;;;;;9.50;100.00;102201.34;5073283;28;20033;-69
2021/03/14 09:27:18;;;;;;;22.33;3.60;;;;;;;9.54;100.00;102208.09;5073219;28;20077;-64
2021/03/14 09:29:52;;;;;;;19.70;3.90;;;;;;;9.49;100.00;102200.50;5073220;28;20041;-66
2021/03/14 09:32:24;;;;;;;20.02;4.30;;;;;;;9.53;100.00;102209.13;5073270;28;20021;-66
2021/03/14 09:34:51;;;;;;;24.75;3.75;;;;;;;9.60;100.00;102208.13;5073017;28;20032;-69
2021/03/14 09:37:31;;;;;;;27.85;5.10;;;;;;;9.62;100.00;102216.13;5071920;28;20616;-68
2021/03/14 09:40:49;;;;;;;16.85;3.03;;;;;;;9.61;100.00;102233.53;5055092;28;20032;-65
2021/03/14 09:43:24;;;;;;;21.92;2.95;;;;;;;9.64;100.00;102224.94;4974783;28;20641;-64
2021/03/14 09:45:57;;;;;;;21.42;3.47;;;;;;;9.63;100.00;102228.72;4991202;28;20073;-68
2021/03/14 09:48:27;;;;;;;20.08;3.97;;;;;;;9.65;100.00;102232.06;5038092;28;20040;-65
2021/03/14 09:50:56;;;;;;;15.45;2.60;;;;;;;9.65;100.00;102241.09;5072961;28;20043;-65
2021/03/14 09:53:26;;;;;;;17.77;3.17;;;;;;;9.67;100.00;102240.91;5072657;28;20122;-67
2021/03/14 09:56:02;;;;;;;19.42;2.80;;;;;;;9.68;100.00;102269.84;5072535;28;20455;-70
2021/03/14 09:58:29;;;;;;;21.40;3.08;;;;;;;9.63;100.00;102277.81;5072506;28;20044;-67
2021/03/14 10:00:57;;;;;;;22.13;3.58;;;;;;;9.58;100.00;102274.84;5072437;28;20086;-63
2021/03/14 10:03:28;;;;;;;28.00;3.40;;;;;;;9.55;100.00;102288.91;5072432;28;20046;-66
2021/03/14 10:06:02;;;;;;;20.73;2.63;;;;;;;9.52;100.00;102286.53;5072611;28;20139;-65
2021/03/14 10:08:39;;;;;;;21.02;3.40;;;;;;;9.52;100.00;102283.81;5072430;28;20036;-69
2021/03/14 10:11:10;;;;;;;20.98;3.42;;;;;;;9.51;100.00;102287.59;5072287;28;20036;-68
2021/03/14 10:13:36;;;;;;;18.00;3.22;;;;;;;9.51;100.00;102273.94;5072268;28;20048;-67
2021/03/14 10:16:06;;;;;;;19.38;2.67;;;;;;;9.55;100.00;102283.44;5072204;28;20051;-66
2021/03/14 10:18:32;;;;;;;21.83;3.33;;;;;;;9.61;100.00;102290.81;5072347;28;20128;-65
2021/03/14 10:21:17;;;;;;;28.52;3.47;;;;;;;9.72;100.00;102298.44;5072683;28;20117;-65
2021/03/14 10:23:43;;;;;;;25.45;3.33;;;;;;;9.81;100.00;102286.31;5072345;28;20044;-66
2021/03/14 10:26:11;;;;;;;25.80;3.42;;;;;;;9.81;100.00;102286.31;5072087;28;20245;-65
2021/03/14 10:28:39;;;;;;;16.13;2.88;;;;;;;9.84;100.00;102283.19;5072040;28;20033;-67
2021/03/14 10:31:07;;;;;;;17.75;2.33;;;;;;;9.85;100.00;102276.66;5071839;28;20047;-66
2021/03/14 10:33:38;;;;;;;18.42;2.92;;;;;;;9.94;100.00;102275.47;5071793;28;20036;-66
2021/03/14 10:36:06;;;;;;;22.45;3.63;;;;;;;9.99;100.00;102277.56;5071575;28;20039;-67
2021/03/14 10:38:51;;;;;;;17.25;2.85;;;;;;;9.94;100.00;102285.53;5071668;28;20072;-67
2021/03/14 10:41:22;;;;;;;19.38;2.92;;;;;;;9.94;100.00;102291.84;5071778;28;20505;-67
2021/03/14 10:43:53;;;;;;;18.90;3.50;;;;;;;10.05;100.00;102295.03;5053887;28;20393;-67
2021/03/14 10:46:35;;;;;;;25.67;3.17;;;;;;;10.09;100.00;102283.50;5071549;28;20058;-67
2021/03/14 10:49:12;;;;;;;17.48;2.67;;;;;;;10.06;100.00;102283.91;5071461;28;20060;-67
2021/03/14 10:51:40;;;;;;;15.88;2.50;;;;;;;10.05;100.00;102281.38;5071638;28;20107;-65
2021/03/14 10:54:10;;;;;;;21.77;4.75;;;;;;;10.07;100.00;102292.97;5071484;28;20036;-69
2021/03/14 10:56:47;;;;;;;21.08;2.22;;;;;;;10.19;100.00;102294.03;5071359;28;20513;-67
2021/03/14 10:59:29;;;;;;;17.60;3.13;;;;;;;10.33;100.00;102295.81;5071520;28;20085;-66
2021/03/14 11:02:10;;;;;;;20.42;3.15;;;;;;;10.70;100.00;102301.78;5053194;28;20087;-68
2021/03/14 11:04:36;;;;;;;12.43;2.78;;;;;;;10.99;100.00;102306.03;5071221;28;20024;-68
2021/03/14 11:07:22;;;;;;;16.15;2.95;;;;;;;11.28;100.00;102296.56;5071142;28;20129;-69
2021/03/14 11:09:48;;;;;;;21.13;2.65;;;;;;;11.25;100.00;102306.03;5071261;28;20044;-66
2021/03/14 11:12:39;;;;;;;18.95;3.33;;;;;;;11.43;100.00;102308.13;5071064;28;20497;-67
2021/03/14 11:15:06;;;;;;;21.42;3.90;;;;;;;11.30;100.00;102313.63;5071132;28;20029;-68
2021/03/14 11:17:35;;;;;;;13.85;2.67;;;;;;;11.27;100.00;102308.56;5070940;28;20041;-70
2021/03/14 11:20:06;;;;;;;15.45;2.10;;;;;;;11.10;100.00;102311.72;5071123;28;20095;-71
2021/03/14 11:22:32;;;;;;;19.40;2.38;;;;;;;11.09;100.00;102312.75;5070853;28;20060;-67
2021/03/14 11:24:57;;;;;;;21.58;3.30;;;;;;;11.33;100.00;102305.84;5071013;28;20129;-67
2021/03/14 11:27:24;;;;;;;16.77;2.97;;;;;;;11.62;100.00;102318.19;5071127;28;20628;-67